Time;durP1;ratioP1;P1;durP2;ratioP2;P2;SDS_P1;SDS_P2;PMS_P1;PMS_P2;Temp;Humidity;BMP_temperature;BMP_pressure;BME280_temperature;BME280_humidity;BME280_pressure;Samples;Min_cycle;Max_cycle;Signal;HPM_P1;HPM_P2
2022/05/09 00:04:14;;;;;;;8.85;4.72;;;;;;;14.72;57.90;100435.50;7718307;32;39895;-74
2022/05/09 00:08:30;;;;;;;8.52;4.93;;;;;;;14.77;58.53;100442.91;7709019;32;39909;-74
2022/05/09 00:12:46;;;;;;;5.95;3.65;;;;;;;14.64;58.81;100439.69;7708997;32;37968;-73
2022/05/09 00:17:03;;;;;;;7.90;4.78;;;;;;;14.75;58.55;100432.19;7708813;32;37850;-74
2022/05/09 00:21:19;;;;;;;6.50;4.57;;;;;;;14.55;59.46;100427.59;7717978;32;40019;-74
2022/05/09 00:25:35;;;;;;;7.28;4.30;;;;;;;14.75;59.13;100436.87;7710613;32;40057;-74
2022/05/09 00:29:51;;;;;;;7.60;4.55;;;;;;;14.78;58.73;100436.28;7712641;32;37724;-74
2022/05/09 00:34:09;;;;;;;9.55;3.95;;;;;;;14.80;58.84;100439.59;7713416;32;35663;-74
2022/05/09 00:38:26;;;;;;;7.85;4.62;;;;;;;14.86;58.39;100432.94;7727867;32;39363;-74
2022/05/09 00:42:50;;;;;;;7.80;4.55;;;;;;;15.16;57.37;100431.06;7739275;32;39750;-74
2022/05/09 00:47:08;;;;;;;7.95;4.50;;;;;;;14.89;58.45;100432.38;7739171;32;37964;-74
2022/05/09 00:51:26;;;;;;;7.40;4.57;;;;;;;14.75;59.07;100436.87;7738540;32;37119;-74
2022/05/09 00:55:51;;;;;;;7.50;4.40;;;;;;;14.44;59.99;100437.00;7720989;32;40165;-74
2022/05/09 01:00:17;;;;;;;6.53;4.30;;;;;;;14.36;60.32;100437.59;7711108;32;39832;-74
2022/05/09 01:04:38;;;;;;;8.55;4.55;;;;;;;14.22;60.62;100429.16;7712002;32;38817;-74
2022/05/09 01:08:55;;;;;;;7.30;4.68;;;;;;;14.17;60.55;100442.88;7717138;32;37147;-72
2022/05/09 01:13:13;;;;;;;7.30;4.10;;;;;;;14.51;62.77;100443.00;7725562;32;39358;-73
2022/05/09 01:17:29;;;;;;;6.30;4.12;;;;;;;14.48;59.47;100449.06;7710855;32;38855;-73
2022/05/09 01:21:45;;;;;;;7.95;4.25;;;;;;;14.58;58.39;100438.06;7710715;32;38226;-73
2022/05/09 01:26:01;;;;;;;10.10;4.55;;;;;;;14.76;57.42;100441.25;7712965;32;38504;-73
2022/05/09 01:30:21;;;;;;;6.25;4.18;;;;;;;14.48;58.80;100443.56;7711920;32;39301;-73
2022/05/09 01:34:41;;;;;;;6.28;4.30;;;;;;;14.57;58.36;100447.37;7710877;32;40833;-73
2022/05/09 01:39:00;;;;;;;6.93;4.37;;;;;;;14.51;58.92;100445.75;7711104;32;37707;-73
2022/05/09 01:43:35;;;;;;;6.62;4.47;;;;;;;14.57;58.77;100455.59;7714871;32;36180;-73
2022/05/09 01:52:26;;;;;;;6.82;3.90;;;;;;;14.42;58.62;100441.97;7711635;32;40731;-73
2022/05/09 01:56:43;;;;;;;10.57;4.80;;;;;;;14.24;58.98;100444.22;7711571;32;38164;-73
2022/05/09 02:00:59;;;;;;;10.07;4.32;;;;;;;14.28;58.84;100450.78;7720418;32;37145;-73
2022/05/09 02:05:15;;;;;;;8.43;4.60;;;;;;;13.89;59.71;100445.97;7734337;32;40106;-73
2022/05/09 02:09:31;;;;;;;7.18;4.00;;;;;;;14.02;59.44;100441.84;7737848;32;40050;-73
2022/05/09 02:13:47;;;;;;;6.25;4.40;;;;;;;14.32;58.02;100434.59;7738174;32;39195;-73
2022/05/09 02:18:03;;;;;;;8.73;4.55;;;;;;;14.15;58.85;100439.59;7737829;32;37054;-72
2022/05/09 02:22:19;;;;;;;8.15;4.95;;;;;;;14.12;59.55;100449.19;7725104;32;39131;-73
2022/05/09 02:26:37;;;;;;;7.10;4.37;;;;;;;13.95;60.42;100435.00;7721759;32;39655;-73
2022/05/09 02:30:53;;;;;;;6.00;4.20;;;;;;;14.06;59.52;100431.94;7720437;32;38882;-72
2022/05/09 02:35:09;;;;;;;7.20;4.50;;;;;;;13.87;59.92;100450.91;7711284;32;37220;-72
2022/05/09 02:39:25;;;;;;;8.60;4.20;;;;;;;14.21;58.73;100442.06;7717223;32;39316;-72
2022/05/09 02:43:41;;;;;;;6.47;4.32;;;;;;;13.82;60.41;100456.41;7713744;32;39923;-73
2022/05/09 02:47:57;;;;;;;8.88;4.28;;;;;;;14.02;59.86;100457.44;7709508;32;37926;-72
2022/05/09 02:52:13;;;;;;;7.32;4.93;;;;;;;14.00;59.74;100456.91;7710962;32;38504;-72
2022/05/09 02:56:29;;;;;;;8.68;4.47;;;;;;;13.63;60.83;100455.34;7716995;32;39124;-73
2022/05/09 03:00:45;;;;;;;7.90;4.30;;;;;;;13.75;60.48;100447.66;7713708;32;39699;-73
2022/05/09 03:05:02;;;;;;;7.35;4.47;;;;;;;13.87;59.89;100450.91;7710690;32;38639;-73
2022/05/09 03:09:18;;;;;;;7.32;4.40;;;;;;;13.53;61.47;100451.50;7710536;32;37078;-72
2022/05/09 03:13:34;;;;;;;7.62;4.37;;;;;;;13.75;60.45;100453.13;7716525;32;40014;-73
2022/05/09 03:17:50;;;;;;;5.70;4.07;;;;;;;13.76;60.27;100451.22;7713195;32;40215;-73
2022/05/09 03:22:07;;;;;;;7.53;4.43;;;;;;;13.76;60.15;100454.75;7710278;32;38036;-72
2022/05/09 03:26:24;;;;;;;8.68;4.47;;;;;;;13.66;60.95;100465.72;7710440;32;36847;-72
2022/05/09 03:30:40;;;;;;;6.65;4.10;;;;;;;13.87;60.13;100459.12;7716232;32;39779;-72
2022/05/09 03:34:56;;;;;;;6.90;4.65;;;;;;;13.63;61.47;100469.06;7711505;32;40786;-72
2022/05/09 03:39:13;;;;;;;6.93;4.43;;;;;;;13.92;60.28;100465.69;7709913;32;37978;-72
2022/05/09 03:43:29;;;;;;;6.45;4.62;;;;;;;13.72;61.31;100467.37;7709790;32;37892;-72
2022/05/09 03:47:45;;;;;;;5.85;3.87;;;;;;;13.83;61.18;100470.91;7715887;32;39885;-72
2022/05/09 03:52:01;;;;;;;7.30;4.43;;;;;;;14.23;59.74;100474.69;7712269;32;40819;-72
2022/05/09 03:56:17;;;;;;;6.45;3.92;;;;;;;14.08;60.98;100472.78;7727452;32;37940;-72
2022/05/09 04:00:35;;;;;;;8.05;4.60;;;;;;;14.24;61.18;100470.81;7737828;32;37067;-72
2022/05/09 04:04:51;;;;;;;9.27;4.68;;;;;;;14.37;61.18;100475.72;7739802;32;39475;-72
2022/05/09 04:09:07;;;;;;;9.57;4.18;;;;;;;14.25;62.15;100476.03;7737611;32;39980;-72
2022/05/09 04:13:23;;;;;;;7.53;3.80;;;;;;;14.53;61.52;100468.22;7739516;32;38677;-73
2022/05/09 04:17:39;;;;;;;11.68;4.72;;;;;;;14.57;61.19;100474.81;7716212;32;37230;-72
2022/05/09 04:21:57;;;;;;;14.35;4.65;;;;;;;14.50;62.12;100478.94;7712757;32;40079;-72
2022/05/09 04:26:13;;;;;;;7.00;4.60;;;;;;;14.20;63.48;100487.00;7712638;32;39865;-73
2022/05/09 04:30:31;;;;;;;16.35;4.55;;;;;;;14.48;61.45;100473.75;7732221;32;37005;-73
2022/05/09 04:34:47;;;;;;;17.27;4.78;;;;;;;14.48;62.16;100476.47;7739386;32;37094;-73
2022/05/09 04:39:03;;;;;;;8.50;4.07;;;;;;;14.08;64.01;100472.78;7738994;32;39377;-73
2022/05/09 04:43:21;;;;;;;13.70;4.35;;;;;;;14.73;62.06;100477.47;7739298;32;41044;-73
2022/05/09 04:47:37;;;;;;;10.48;4.30;;;;;;;14.77;62.21;100478.56;7738199;32;37986;-73
2022/05/09 04:51:53;;;;;;;9.18;4.75;;;;;;;15.02;61.61;100475.69;7739038;32;37909;-73
2022/05/09 04:56:10;;;;;;;8.63;4.28;;;;;;;14.83;62.01;100477.44;7739083;32;39274;-73
2022/05/09 05:00:27;;;;;;;8.00;4.40;;;;;;;15.11;61.61;100478.63;7738976;32;40486;-73
2022/05/09 05:04:44;;;;;;;9.45;4.95;;;;;;;15.24;61.67;100488.16;7738998;32;38789;-73
2022/05/09 05:09:00;;;;;;;5.97;3.92;;;;;;;15.58;61.06;100484.59;7723708;32;37187;-73
2022/05/09 05:13:17;;;;;;;12.45;4.60;;;;;;;16.01;60.45;100490.25;7711816;32;39771;-73
2022/05/09 05:17:33;;;;;;;11.40;4.35;;;;;;;15.83;61.15;100489.03;7711751;32;39854;-73
2022/05/09 05:21:50;;;;;;;9.82;4.12;;;;;;;15.85;60.95;100497.00;7738740;32;38589;-73
2022/05/09 05:26:08;;;;;;;9.52;4.15;;;;;;;16.20;60.58;100498.56;7738865;32;37855;-74
2022/05/09 05:30:24;;;;;;;10.02;3.83;;;;;;;16.34;60.16;100493.19;7723773;32;39118;-73
2022/05/09 05:34:40;;;;;;;7.62;3.80;;;;;;;16.93;57.58;100493.81;7711739;32;40764;-72
2022/05/09 05:38:56;;;;;;;8.55;4.00;;;;;;;17.28;56.88;100499.91;7711579;32;38018;-72
2022/05/09 05:43:14;;;;;;;7.22;3.70;;;;;;;17.61;55.84;100500.75;7714367;32;37380;-73
2022/05/09 05:47:30;;;;;;;11.23;3.67;;;;;;;18.10;55.68;100497.72;7720539;32;39344;-73
2022/05/09 05:51:46;;;;;;;7.45;4.22;;;;;;;18.04;55.32;100507.22;7725758;32;39869;-74
2022/05/09 05:56:02;;;;;;;7.30;4.03;;;;;;;17.68;58.02;100513.31;7729068;32;37904;-74
2022/05/09 06:00:21;;;;;;;7.70;4.05;;;;;;;17.89;57.81;100511.09;7737441;32;37960;-74
2022/05/09 06:04:38;;;;;;;6.53;3.97;;;;;;;18.43;54.98;100519.72;7738445;32;40140;-74
2022/05/09 06:08:54;;;;;;;10.88;4.18;;;;;;;18.60;53.90;100519.91;7737884;32;40505;-75
2022/05/09 06:13:11;;;;;;;8.90;3.72;;;;;;;18.90;52.50;100525.94;7716041;32;37917;-74
2022/05/09 06:17:27;;;;;;;8.10;3.65;;;;;;;19.47;50.72;100519.91;7734235;32;37162;-75
2022/05/09 06:21:43;;;;;;;20.20;4.18;;;;;;;19.54;48.83;100520.31;7737469;32;39303;-74
2022/05/09 06:26:00;;;;;;;4.40;3.35;;;;;;;19.67;49.75;100522.19;7737980;32;40783;-74
2022/05/09 06:30:18;;;;;;;7.47;3.55;;;;;;;20.20;44.46;100523.31;7737651;32;38748;-75
2022/05/09 06:34:34;;;;;;;7.25;3.70;;;;;;;20.58;45.88;100530.31;7737450;32;37723;-72
2022/05/09 06:38:50;;;;;;;13.75;3.50;;;;;;;20.83;42.92;100526.00;7737801;32;39329;-74
2022/05/09 06:43:07;;;;;;;7.62;3.00;;;;;;;21.08;43.50;100534.69;7735178;32;39811;-77
2022/05/09 06:47:23;;;;;;;7.20;3.70;;;;;;;21.24;42.06;100527.50;7736061;32;38013;-75
2022/05/09 06:51:39;;;;;;;4.78;3.10;;;;;;;21.24;41.40;100526.69;7734829;32;37152;-77
2022/05/09 06:55:54;;;;;;;5.65;3.10;;;;;;;21.56;42.11;100528.19;7737033;32;40077;-77
2022/05/09 07:00:14;;;;;;;8.00;2.90;;;;;;;21.58;43.15;100531.44;7736595;32;39988;-77
2022/05/09 07:04:30;;;;;;;4.97;3.40;;;;;;;21.80;41.95;100524.06;7737450;32;37652;-75
2022/05/09 07:08:46;;;;;;;5.93;3.42;;;;;;;22.07;41.31;100536.72;7736122;32;37300;-75
2022/05/09 07:13:04;;;;;;;7.78;3.30;;;;;;;21.79;40.67;100536.31;7737425;32;40084;-74
2022/05/09 07:17:20;;;;;;;5.35;2.97;;;;;;;21.35;39.74;100541.84;7736262;32;40757;-75
2022/05/09 07:21:36;;;;;;;7.87;3.55;;;;;;;21.63;40.41;100542.37;7737016;32;38713;-74
2022/05/09 07:25:55;;;;;;;4.78;3.62;;;;;;;21.20;39.96;100543.97;7737084;32;37052;-75
2022/05/09 07:30:14;;;;;;;5.20;3.53;;;;;;;21.59;39.70;100533.06;7737075;32;39297;-74
2022/05/09 07:34:30;;;;;;;7.25;3.20;;;;;;;21.60;39.88;100539.44;7737715;32;39729;-74
2022/05/09 07:38:46;;;;;;;5.10;3.35;;;;;;;21.90;39.46;100537.59;7740022;32;37704;-74
2022/05/09 07:43:03;;;;;;;6.53;3.53;;;;;;;21.89;38.37;100535.97;7740103;32;37660;-75
2022/05/09 07:47:19;;;;;;;5.90;3.65;;;;;;;22.73;38.83;100535.47;7739920;32;40114;-74
2022/05/09 07:51:37;;;;;;;8.60;3.60;;;;;;;23.14;37.58;100534.75;7740002;32;40016;-75
2022/05/09 07:55:53;;;;;;;6.10;3.20;;;;;;;23.71;35.66;100529.66;7739857;32;37808;-75
2022/05/09 08:00:10;;;;;;;4.05;3.30;;;;;;;23.79;35.78;100528.78;7739874;32;37084;-75
2022/05/09 08:04:26;;;;;;;6.45;3.17;;;;;;;23.87;36.16;100527.06;7739762;32;39533;-81
2022/05/09 08:08:43;;;;;;;8.10;3.70;;;;;;;24.17;35.97;100531.31;7738256;32;40877;-75
2022/05/09 08:13:02;;;;;;;7.82;3.90;;;;;;;24.27;35.06;100529.25;7739495;32;37952;-73
2022/05/09 08:17:18;;;;;;;4.47;3.00;;;;;;;24.23;36.18;100529.13;7739575;32;37682;-74
2022/05/09 08:21:36;;;;;;;5.62;3.55;;;;;;;24.43;34.65;100526.59;7739424;32;39415;-74
2022/05/09 08:25:55;;;;;;;6.78;3.50;;;;;;;24.79;35.47;100531.38;7739849;32;40773;-80
2022/05/09 08:30:12;;;;;;;5.30;2.97;;;;;;;25.08;34.48;100533.06;7739309;32;37933;-71
2022/05/09 08:34:34;;;;;;;8.40;3.22;;;;;;;25.22;32.36;100527.09;7739353;32;37337;-71
2022/05/09 08:38:50;;;;;;;6.68;3.75;;;;;;;24.96;33.74;100527.50;7732054;32;233824;-70
2022/05/09 08:43:27;;;;;;;4.53;2.90;;;;;;;24.91;31.95;100525.75;7739235;32;40825;-71
2022/05/09 08:48:35;;;;;;;11.05;4.05;;;;;;;25.39;33.02;100522.41;7734681;32;38015;-72
2022/05/09 08:52:59;;;;;;;8.48;3.58;;;;;;;25.37;32.41;100525.56;7732235;32;36722;-73
2022/05/09 08:57:25;;;;;;;7.85;3.83;;;;;;;23.76;33.05;100535.03;7739139;32;39392;-75
2022/05/09 09:01:55;;;;;;;8.30;4.05;;;;;;;23.92;34.61;100538.00;7724002;32;38202;-75
2022/05/09 09:06:27;;;;;;;13.40;3.60;;;;;;;23.74;33.41;100531.78;7711987;32;38126;-76
2022/05/09 09:11:03;;;;;;;4.85;3.30;;;;;;;24.03;33.19;100539.19;7720457;32;37863;-80
2022/05/09 09:15:25;;;;;;;6.70;3.37;;;;;;;23.79;34.92;100539.91;7726050;32;39418;-78
2022/05/09 09:20:04;;;;;;;5.30;3.50;;;;;;;24.09;35.11;100540.59;7731768;32;39819;-74
2022/05/09 09:24:51;;;;;;;6.85;3.25;;;;;;;23.88;34.99;100537.06;7711763;32;37956;-73
2022/05/09 09:29:13;;;;;;;5.03;3.10;;;;;;;24.10;34.22;100533.88;7710765;32;37080;-73
2022/05/09 09:33:30;;;;;;;7.68;3.92;;;;;;;24.46;33.61;100525.91;7711869;32;39950;-73
2022/05/09 09:38:13;;;;;;;7.43;4.10;;;;;;;24.38;33.95;100527.63;7711652;32;40877;-73
2022/05/09 09:42:29;;;;;;;5.95;3.37;;;;;;;24.52;35.05;100546.78;7736354;32;38669;-73
2022/05/09 09:47:21;;;;;;;5.70;3.65;;;;;;;24.24;35.60;100541.87;7715666;32;38269;-73
2022/05/09 09:51:58;;;;;;;6.65;3.65;;;;;;;24.38;33.85;100534.00;7719762;32;40360;-73
2022/05/09 09:56:23;;;;;;;10.35;3.67;;;;;;;23.78;34.71;100536.31;7711372;32;40194;-72
2022/05/09 10:00:39;;;;;;;6.35;3.70;;;;;;;24.05;35.33;100533.28;7720332;32;39394;-71
2022/05/09 10:04:57;;;;;;;9.57;3.92;;;;;;;23.88;35.21;100526.72;7716439;32;37053;-71
2022/05/09 10:09:18;;;;;;;6.30;3.70;;;;;;;23.78;35.70;100516.00;7738171;32;39473;-72
2022/05/09 10:13:45;;;;;;;6.70;3.60;;;;;;;23.42;36.35;100518.31;7737072;32;40156;-72
2022/05/09 10:18:21;;;;;;;6.55;3.50;;;;;;;24.11;36.66;100520.75;7726252;32;38788;-73
2022/05/09 10:27:39;;;;;;;6.35;3.47;;;;;;;24.84;34.15;100510.81;7711206;32;40214;-75
2022/05/09 10:32:00;;;;;;;6.22;2.80;;;;;;;24.38;32.34;100511.72;7711157;32;39976;-75
2022/05/09 10:36:35;;;;;;;5.32;2.60;;;;;;;24.54;30.62;100511.03;7711165;32;38004;-74
2022/05/09 10:40:58;;;;;;;5.60;2.90;;;;;;;24.68;33.01;100513.47;7711063;32;37184;-75
2022/05/09 10:45:20;;;;;;;;;;;;;;;24.31;32.76;100519.84;7725216;32;40127;-74
2022/05/09 10:50:11;;;;;;;23.85;5.28;;;;;;;24.23;35.50;100534.69;7713824;32;40306;-71
2022/05/09 10:54:54;;;;;;;10.90;3.70;;;;;;;23.59;45.96;100547.97;7698469;32;38181;-74
2022/05/09 10:59:16;;;;;;;9.88;3.55;;;;;;;22.34;47.68;100529.16;7714762;32;36994;-72
2022/05/09 11:03:37;;;;;;;13.38;4.20;;;;;;;22.11;46.19;100516.31;7725590;32;40165;-72
2022/05/09 11:08:09;;;;;;;10.63;4.25;;;;;;;22.33;51.21;100520.00;7709049;32;39986;-72
2022/05/09 11:12:31;;;;;;;7.80;4.32;;;;;;;21.50;55.36;100518.41;7726837;32;38698;-73
2022/05/09 11:17:21;;;;;;;11.35;5.55;;;;;;;20.93;58.80;100517.38;7710619;32;36897;-73
2022/05/09 11:21:58;;;;;;;7.47;4.37;;;;;;;21.04;59.11;100511.50;7712246;32;40089;-74
2022/05/09 11:26:24;;;;;;;9.70;4.72;;;;;;;21.43;58.00;100506.94;7736699;32;40935;-74
2022/05/09 11:30:43;;;;;;;11.73;4.97;;;;;;;21.45;59.07;100499.13;7708921;32;37938;-78
2022/05/09 11:35:18;;;;;;;7.53;4.28;;;;;;;21.16;59.67;100493.09;7710140;32;37361;-78
2022/05/09 11:39:44;;;;;;;5.87;4.35;;;;;;;21.08;59.42;100490.34;7709940;32;39851;-78
2022/05/09 11:44:11;;;;;;;8.95;4.40;;;;;;;21.31;57.18;100480.69;7709889;32;40414;-78
2022/05/09 11:48:42;;;;;;;11.02;4.15;;;;;;;21.80;56.63;100474.09;7709763;32;37984;-78
2022/05/09 11:53:00;;;;;;;8.05;4.37;;;;;;;21.85;59.16;100473.91;7709622;32;37803;-79
2022/05/09 11:57:32;;;;;;;5.78;3.90;;;;;;;22.07;58.91;100482.00;7709555;32;38363;-78
2022/05/09 12:01:59;;;;;;;10.25;4.28;;;;;;;22.58;56.90;100475.75;7716071;32;39902;-77
2022/05/09 12:06:42;;;;;;;7.70;3.42;;;;;;;23.30;56.04;100468.19;7735968;32;37966;-77
2022/05/09 12:11:17;;;;;;;6.95;3.03;;;;;;;23.51;46.51;100465.38;7723144;32;36943;-76
2022/05/09 12:15:34;;;;;;;9.75;3.70;;;;;;;24.28;43.34;100466.78;7720831;32;39330;-77
2022/05/09 12:19:52;;;;;;;5.00;2.83;;;;;;;24.59;48.61;100468.19;7723187;32;40788;-77
2022/05/09 12:24:18;;;;;;;6.65;2.58;;;;;;;25.25;39.11;100466.97;7727703;32;37010;-79
2022/05/09 12:28:39;;;;;;;3.10;2.20;;;;;;;26.16;37.31;100451.47;7715134;32;37003;-78
2022/05/09 12:32:56;;;;;;;3.87;2.37;;;;;;;26.69;41.77;100439.97;7738135;32;38346;-76
2022/05/09 12:37:15;;;;;;;2.67;2.25;;;;;;;27.47;40.93;100445.56;7738514;32;40005;-80
2022/05/09 12:41:48;;;;;;;3.97;2.47;;;;;;;27.03;31.94;100440.25;7737632;32;37946;-78
2022/05/09 12:46:07;;;;;;;5.57;2.12;;;;;;;26.76;33.51;100429.72;7731628;32;37594;-80
2022/05/09 12:50:30;;;;;;;4.40;2.40;;;;;;;27.21;30.15;100423.84;7712012;32;40208;-80
2022/05/09 12:59:27;;;;;;;5.18;2.70;;;;;;;28.55;31.44;100411.78;7701975;32;37882;-82
2022/05/09 13:03:56;;;;;;;3.92;2.60;;;;;;;29.59;32.39;100401.75;7717485;32;37261;-81
2022/05/09 13:08:14;;;;;;;3.75;2.42;;;;;;;29.69;31.47;100405.09;7737458;32;40098;-80
2022/05/09 13:12:43;;;;;;;4.60;2.90;;;;;;;30.61;30.49;100392.91;7737071;32;39974;-81
2022/05/09 13:17:03;;;;;;;4.80;2.70;;;;;;;30.42;30.29;100390.41;7724810;32;37992;-78
2022/05/09 13:21:26;;;;;;;4.85;2.70;;;;;;;29.91;30.23;100395.66;7737463;32;35286;-80
2022/05/09 13:25:51;;;;;;;3.55;2.70;;;;;;;29.07;33.43;100398.00;7726031;32;39355;-79
2022/05/09 13:30:09;;;;;;;5.72;2.78;;;;;;;28.94;30.10;100388.22;7711270;32;40013;-79
2022/05/09 13:34:31;;;;;;;5.32;2.80;;;;;;;28.89;26.27;100380.13;7708296;32;37942;-80
2022/05/09 13:38:47;;;;;;;4.37;2.87;;;;;;;28.12;31.17;100388.69;7710402;32;37848;-78
2022/05/09 13:43:03;;;;;;;12.93;3.72;;;;;;;27.55;33.50;100382.94;7711221;32;40061;-79
2022/05/09 13:47:21;;;;;;;5.60;2.83;;;;;;;26.58;37.17;100375.41;7709129;32;39936;-78
2022/05/09 13:51:50;;;;;;;6.85;2.78;;;;;;;25.81;36.23;100383.16;7708132;32;37474;-78
2022/05/09 13:56:13;;;;;;;3.10;2.60;;;;;;;25.83;38.17;100380.81;7707511;32;37082;-79
2022/05/09 14:00:49;;;;;;;4.37;2.65;;;;;;;25.53;41.13;100388.84;7710301;32;39300;-78
2022/05/09 14:05:12;;;;;;;3.72;2.40;;;;;;;25.24;41.39;100378.88;7710097;32;39978;-77
2022/05/09 14:09:31;;;;;;;3.53;2.40;;;;;;;24.85;41.73;100375.78;7709904;32;38688;-76
2022/05/09 14:13:49;;;;;;;4.15;2.40;;;;;;;24.27;42.34;100376.84;7709590;32;36817;-77
2022/05/09 14:18:15;;;;;;;4.70;2.35;;;;;;;23.83;42.56;100382.19;7709474;32;39393;-78
2022/05/09 14:22:31;;;;;;;4.62;2.80;;;;;;;23.95;37.95;100390.53;7709856;32;40721;-78
2022/05/09 14:31:42;;;;;;;11.73;3.30;;;;;;;24.20;38.23;100418.41;7726574;32;37226;-79
2022/05/09 14:36:00;;;;;;;9.25;3.50;;;;;;;23.18;41.57;100416.13;7722064;32;40189;-78
2022/05/09 14:40:25;;;;;;;7.90;3.10;;;;;;;22.43;44.09;100438.25;7710610;32;39674;-77
2022/05/09 14:44:43;;;;;;;4.62;3.08;;;;;;;21.28;45.29;100453.59;7710789;32;39286;-78
2022/05/09 14:48:59;;;;;;;6.22;3.50;;;;;;;21.13;46.24;100448.59;7710904;32;38052;-77
2022/05/09 14:53:17;;;;;;;6.80;3.20;;;;;;;20.67;49.70;100461.13;7737366;32;40047;-78
2022/05/09 14:57:34;;;;;;;6.87;3.67;;;;;;;20.55;51.22;100462.50;7736944;32;38969;-77
2022/05/09 15:02:02;;;;;;;9.52;3.50;;;;;;;20.13;53.58;100484.22;7735776;32;38763;-77
2022/05/09 15:06:21;;;;;;;8.80;3.45;;;;;;;20.13;53.84;100488.91;7737156;32;37019;-74
2022/05/09 15:10:41;;;;;;;6.20;3.40;;;;;;;19.68;56.29;100490.63;7711891;32;38510;-78
2022/05/09 15:14:57;;;;;;;10.00;3.60;;;;;;;20.19;54.20;100495.97;7710243;32;41409;-78
2022/05/09 15:19:16;;;;;;;11.70;3.58;;;;;;;20.23;53.74;100491.41;7708488;32;38748;-76
2022/05/09 15:23:33;;;;;;;6.62;3.83;;;;;;;20.04;54.42;100505.50;7710246;32;37374;-77
2022/05/09 15:27:50;;;;;;;6.65;3.42;;;;;;;19.74;54.80;100499.62;7709655;32;39996;-76
2022/05/09 15:32:10;;;;;;;7.25;3.70;;;;;;;19.85;54.25;100495.47;7709855;32;39899;-76
2022/05/09 15:36:27;;;;;;;6.28;3.35;;;;;;;19.48;54.42;100491.16;7724395;32;37947;-77
2022/05/09 15:40:59;;;;;;;7.90;3.80;;;;;;;19.40;55.83;100484.41;7735789;32;37043;-77
2022/05/09 15:45:19;;;;;;;5.82;3.87;;;;;;;19.29;56.88;100489.38;7726097;32;40068;-76
2022/05/09 15:49:36;;;;;;;7.57;3.37;;;;;;;19.25;55.50;100482.84;7708899;32;39955;-77
2022/05/09 15:53:52;;;;;;;7.72;3.37;;;;;;;19.35;56.24;100481.81;7725309;32;37678;-75
2022/05/09 15:58:08;;;;;;;8.48;3.30;;;;;;;19.17;58.24;100480.03;7711983;32;37959;-75
2022/05/09 16:02:26;;;;;;;7.32;4.03;;;;;;;19.33;56.98;100461.91;7712504;32;39031;-81
2022/05/09 16:15:35;;;;;;;8.60;4.22;;;;;;;18.92;58.12;100446.31;7711760;32;37839;-76
2022/05/09 16:20:00;;;;;;;8.88;3.85;;;;;;;19.49;56.84;100446.59;7736130;32;39637;-76
2022/05/09 16:24:19;;;;;;;8.98;4.10;;;;;;;19.37;58.34;100434.47;7710817;32;40924;-75
2022/05/09 16:28:35;;;;;;;6.55;3.85;;;;;;;19.39;59.45;100437.75;7712221;32;38206;-76
2022/05/09 16:32:51;;;;;;;8.13;4.22;;;;;;;19.37;60.06;100435.28;7711047;32;36780;-76
2022/05/09 16:37:07;;;;;;;9.20;4.47;;;;;;;19.46;59.75;100441.69;7711252;32;39479;-75
2022/05/09 16:41:23;;;;;;;7.22;3.85;;;;;;;19.66;58.47;100437.59;7711410;32;39448;-76
2022/05/09 16:45:40;;;;;;;6.90;4.07;;;;;;;19.55;58.87;100447.28;7712318;32;38596;-76
2022/05/09 16:49:56;;;;;;;6.12;3.55;;;;;;;19.40;58.73;100456.75;7711787;32;36822;-76
2022/05/09 16:54:12;;;;;;;7.47;3.97;;;;;;;19.24;59.07;100455.53;7711045;32;39850;-76
2022/05/09 16:58:28;;;;;;;7.60;3.78;;;;;;;19.74;56.90;100449.84;7712428;32;39641;-76
2022/05/09 17:02:44;;;;;;;5.85;3.65;;;;;;;19.61;57.27;100450.72;7711011;32;37965;-76
2022/05/09 17:07:00;;;;;;;6.90;3.37;;;;;;;19.82;55.84;100457.37;7710667;32;37148;-75
2022/05/09 17:11:19;;;;;;;5.32;3.80;;;;;;;20.06;55.57;100448.69;7710845;32;39445;-75
2022/05/09 17:15:37;;;;;;;8.57;3.75;;;;;;;20.07;55.83;100455.88;7711728;32;40834;-76
2022/05/09 17:19:54;;;;;;;6.07;4.05;;;;;;;19.77;56.58;100460.28;7711602;32;37946;-76
2022/05/09 17:24:10;;;;;;;6.53;4.10;;;;;;;19.51;57.62;100462.88;7711211;32;37729;-76
2022/05/09 17:28:26;;;;;;;5.85;3.80;;;;;;;19.38;58.28;100470.09;7711563;32;39062;-76
2022/05/09 17:32:43;;;;;;;6.70;4.40;;;;;;;19.32;57.96;100469.41;7711184;32;39990;-75
2022/05/09 17:37:18;;;;;;;6.32;3.83;;;;;;;19.16;58.86;100472.84;7718163;32;37972;-77
2022/05/09 17:41:35;;;;;;;9.15;5.07;;;;;;;18.87;60.28;100474.91;7738700;32;37116;-76
2022/05/09 17:45:51;;;;;;;11.43;5.47;;;;;;;18.83;61.57;100468.34;7736446;32;39975;-76
2022/05/09 17:50:08;;;;;;;7.93;5.05;;;;;;;18.59;62.76;100468.56;7737314;32;40777;-77
2022/05/09 17:54:25;;;;;;;9.18;4.75;;;;;;;18.29;63.97;100479.12;7738502;32;38728;-76
2022/05/09 17:58:41;;;;;;;9.73;5.37;;;;;;;18.42;63.27;100477.50;7738512;32;37074;-77
2022/05/09 18:02:57;;;;;;;8.65;4.90;;;;;;;18.16;64.64;100474.41;7737595;32;40048;-76
2022/05/09 18:07:14;;;;;;;10.90;7.10;;;;;;;18.22;64.31;100469.62;7736808;32;40099;-75
2022/05/09 18:11:43;;;;;;;11.68;6.72;;;;;;;17.75;66.19;100477.94;7738178;32;38546;-77
2022/05/09 18:15:59;;;;;;;13.38;6.30;;;;;;;18.26;64.02;100479.72;7737068;32;37091;-76
2022/05/09 18:20:18;;;;;;;10.00;6.12;;;;;;;18.06;64.00;100474.59;7724840;32;40172;-77
2022/05/09 18:24:37;;;;;;;10.93;5.32;;;;;;;18.29;62.92;100476.38;7722376;32;40035;-77
2022/05/09 18:28:53;;;;;;;9.93;6.20;;;;;;;18.43;62.38;100467.28;7734292;32;38521;-77
2022/05/09 18:33:13;;;;;;;10.68;4.90;;;;;;;18.09;62.88;100466.56;7711363;32;37166;-77
2022/05/09 18:37:49;;;;;;;11.40;5.37;;;;;;;17.91;63.31;100465.50;7718669;32;39053;-77
2022/05/09 18:42:05;;;;;;;17.12;4.85;;;;;;;17.76;63.75;100471.28;7711207;32;39820;-77
2022/05/09 18:46:23;;;;;;;7.72;4.55;;;;;;;18.02;62.53;100474.41;7716968;32;38743;-78
2022/05/09 18:55:30;;;;;;;7.22;4.47;;;;;;;18.02;61.94;100472.47;7708698;32;40013;-78
2022/05/09 18:59:51;;;;;;;7.28;4.20;;;;;;;17.98;62.27;100465.13;7710876;32;39993;-77
2022/05/09 19:04:07;;;;;;;6.60;4.45;;;;;;;17.95;62.42;100468.47;7716198;32;37905;-78
2022/05/09 19:08:32;;;;;;;6.75;4.62;;;;;;;17.99;62.00;100475.84;7737192;32;37761;-78
2022/05/09 19:12:50;;;;;;;7.47;3.87;;;;;;;17.77;62.58;100473.72;7737285;32;39838;-79
2022/05/09 19:17:07;;;;;;;5.82;4.45;;;;;;;17.70;62.87;100473.31;7737069;32;40560;-79
2022/05/09 19:21:24;;;;;;;8.85;4.37;;;;;;;17.62;63.31;100476.75;7736901;32;37906;-78
2022/05/09 19:25:43;;;;;;;7.32;4.30;;;;;;;17.83;61.93;100477.22;7736946;32;37607;-78
2022/05/09 19:30:00;;;;;;;10.57;4.62;;;;;;;17.63;62.99;100483.94;7734589;32;39445;-78
2022/05/09 19:34:18;;;;;;;8.90;5.00;;;;;;;17.66;63.10;100472.31;7736602;32;40898;-79
2022/05/09 19:38:37;;;;;;;7.97;4.82;;;;;;;17.55;63.42;100482.66;7735538;32;37676;-78
2022/05/09 19:42:57;;;;;;;9.05;5.30;;;;;;;17.72;62.99;100475.78;7716460;32;37139;-79
2022/05/09 19:47:17;;;;;;;12.98;5.03;;;;;;;17.24;64.88;100483.16;7708510;32;39424;-79
2022/05/09 19:51:33;;;;;;;7.10;4.45;;;;;;;17.13;65.11;100478.94;7709657;32;40032;-78
2022/05/09 19:55:49;;;;;;;7.30;4.97;;;;;;;17.14;64.93;100488.03;7709327;32;38016;-78
2022/05/09 20:00:09;;;;;;;10.50;5.32;;;;;;;17.13;64.75;100487.22;7729899;32;37060;-77
2022/05/09 20:04:26;;;;;;;11.93;5.25;;;;;;;17.01;65.09;100484.09;7721683;32;40224;-77
2022/05/09 20:08:42;;;;;;;8.27;4.75;;;;;;;16.92;65.27;100481.19;7735849;32;39929;-78
2022/05/09 20:12:58;;;;;;;11.93;4.75;;;;;;;16.96;65.08;100487.72;7735589;32;37883;-78
2022/05/09 20:17:14;;;;;;;6.65;4.62;;;;;;;17.09;64.48;100480.63;7712843;32;37457;-77
2022/05/09 20:21:30;;;;;;;6.90;4.47;;;;;;;17.06;63.99;100492.28;7727728;32;40167;-78
2022/05/09 20:30:21;;;;;;;6.53;4.70;;;;;;;17.05;64.45;100490.63;7708578;32;38697;-77
2022/05/09 20:34:37;;;;;;;9.13;4.87;;;;;;;16.92;65.20;100492.19;7709343;32;37030;-78
2022/05/09 20:39:02;;;;;;;7.87;5.28;;;;;;;16.89;65.40;100501.06;7733935;32;40115;-80
2022/05/09 20:43:18;;;;;;;8.60;5.18;;;;;;;16.86;65.59;100505.19;7732834;32;40339;-77
2022/05/09 20:47:35;;;;;;;9.18;4.97;;;;;;;16.86;65.49;100507.97;7738331;32;37682;-79